Time;durP1;ratioP1;P1;durP2;ratioP2;P2;SDS_P1;SDS_P2;PMS_P1;PMS_P2;Temp;Humidity;BMP_temperature;BMP_pressure;BME280_temperature;BME280_humidity;BME280_pressure;Samples;Min_cycle;Max_cycle;Signal;HPM_P1;HPM_P2
2024/01/22 00:00:42;;;;;;;5.30;3.00;;;;;;;;;;5075003;28;20216;-73
2024/01/22 00:03:10;;;;;;;4.90;3.30;;;;;;;;;;5076756;28;20213;-72
2024/01/22 00:05:36;;;;;;;4.87;3.40;;;;;;;;;;5074268;28;20617;-73
2024/01/22 00:08:03;;;;;;;5.90;3.20;;;;;;;;;;5071235;28;20244;-74
2024/01/22 00:10:29;;;;;;;5.70;3.53;;;;;;;;;;5060381;28;20309;-73
2024/01/22 00:12:55;;;;;;;4.40;3.20;;;;;;;;;;5073270;28;20204;-73
2024/01/22 00:15:21;;;;;;;8.07;3.50;;;;;;;;;;5078043;28;20197;-73
2024/01/22 00:17:47;;;;;;;7.83;3.73;;;;;;;;;;5077122;28;20190;-73
2024/01/22 00:20:13;;;;;;;6.73;3.33;;;;;;;;;;5078368;28;20768;-73
2024/01/22 00:22:39;;;;;;;4.23;3.00;;;;;;;;;;5054906;28;20222;-72
2024/01/22 00:25:05;;;;;;;8.60;3.50;;;;;;;;;;5073254;28;20218;-73
2024/01/22 00:27:31;;;;;;;9.50;3.83;;;;;;;;;;5075320;28;20643;-73
2024/01/22 00:29:57;;;;;;;6.60;3.50;;;;;;;;;;5075712;28;20201;-73
2024/01/22 00:32:23;;;;;;;8.23;3.30;;;;;;;;;;5079152;28;20211;-73
2024/01/22 00:34:49;;;;;;;6.40;3.13;;;;;;;;;;5080667;28;20204;-73
2024/01/22 00:37:15;;;;;;;5.27;3.23;;;;;;;;;;5057829;28;20219;-73
2024/01/22 00:39:41;;;;;;;5.73;3.97;;;;;;;;;;5059780;28;20797;-73
2024/01/22 00:42:07;;;;;;;7.33;3.90;;;;;;;;;;5078751;28;20178;-73
2024/01/22 00:44:33;;;;;;;5.87;3.53;;;;;;;;;;5078291;28;20582;-73
2024/01/22 00:46:59;;;;;;;5.37;3.47;;;;;;;;;;5080118;28;20216;-72
2024/01/22 00:49:25;;;;;;;8.60;3.53;;;;;;;;;;5076428;28;20210;-71
2024/01/22 00:51:51;;;;;;;7.00;2.97;;;;;;;;;;5079004;28;20294;-73
2024/01/22 00:54:17;;;;;;;7.13;3.50;;;;;;;;;;5078906;28;20624;-73
2024/01/22 00:56:43;;;;;;;6.50;3.80;;;;;;;;;;5054131;28;20203;-73
2024/01/22 00:59:09;;;;;;;6.83;3.40;;;;;;;;;;5080462;28;20657;-72
2024/01/22 01:01:35;;;;;;;5.23;3.33;;;;;;;;;;5076003;28;20211;-73
2024/01/22 01:04:01;;;;;;;7.50;3.43;;;;;;;;;;5077351;28;20216;-73
2024/01/22 01:06:27;;;;;;;10.87;2.97;;;;;;;;;;5077208;28;20244;-72
2024/01/22 01:08:53;;;;;;;7.03;3.37;;;;;;;;;;5056649;28;20208;-74
2024/01/22 01:11:19;;;;;;;6.10;3.10;;;;;;;;;;5079458;28;20693;-73
2024/01/22 01:13:45;;;;;;;5.97;2.87;;;;;;;;;;5078448;28;20219;-73
2024/01/22 01:16:11;;;;;;;7.07;3.17;;;;;;;;;;5077919;28;20219;-72
2024/01/22 01:18:37;;;;;;;7.43;3.03;;;;;;;;;;5076658;28;20218;-74
2024/01/22 01:21:03;;;;;;;7.40;3.40;;;;;;;;;;5076762;28;20202;-73
2024/01/22 01:23:29;;;;;;;5.30;3.50;;;;;;;;;;5073705;28;20812;-73
2024/01/22 01:25:55;;;;;;;6.00;3.20;;;;;;;;;;5064015;28;20233;-74
2024/01/22 01:28:21;;;;;;;3.23;2.37;;;;;;;;;;5067016;28;20704;-73
2024/01/22 01:30:47;;;;;;;5.77;3.00;;;;;;;;;;5075693;28;20231;-71
2024/01/22 01:33:13;;;;;;;5.17;3.00;;;;;;;;;;5077624;28;20199;-73
2024/01/22 01:35:43;;;;;;;8.57;3.20;;;;;;;;;;5076552;28;20568;-72
2024/01/22 01:38:09;;;;;;;7.07;3.17;;;;;;;;;;5079221;28;20217;-72
2024/01/22 01:40:35;;;;;;;4.50;2.77;;;;;;;;;;5079164;28;20215;-74
2024/01/22 01:43:01;;;;;;;5.60;2.90;;;;;;;;;;5078035;28;20222;-74
2024/01/22 01:45:27;;;;;;;6.00;2.93;;;;;;;;;;5065518;28;20191;-74
2024/01/22 01:47:53;;;;;;;6.13;2.83;;;;;;;;;;5072732;28;20267;-73
2024/01/22 01:50:19;;;;;;;5.03;3.00;;;;;;;;;;5074576;28;20270;-73
2024/01/22 01:52:46;;;;;;;5.23;3.00;;;;;;;;;;5077140;28;20229;-74
2024/01/22 01:55:12;;;;;;;4.67;3.33;;;;;;;;;;5073677;28;20247;-74
2024/01/22 01:57:42;;;;;;;6.70;3.20;;;;;;;;;;5076343;28;20593;-72
2024/01/22 02:00:09;;;;;;;7.00;3.03;;;;;;;;;;5073474;28;20181;-73
2024/01/22 02:02:38;;;;;;;4.23;2.23;;;;;;;;;;5076867;28;20207;-74
2024/01/22 02:05:04;;;;;;;8.63;3.07;;;;;;;;;;5079074;28;20296;-74
2024/01/22 02:07:30;;;;;;;5.77;2.90;;;;;;;;;;5067982;28;20261;-73
2024/01/22 02:09:56;;;;;;;4.20;2.40;;;;;;;;;;5072059;28;20214;-74
2024/01/22 02:12:22;;;;;;;6.03;2.60;;;;;;;;;;5057920;28;20742;-75
2024/01/22 02:14:48;;;;;;;5.83;2.90;;;;;;;;;;5076069;28;20198;-73
2024/01/22 02:17:15;;;;;;;3.27;2.20;;;;;;;;;;5077828;28;20223;-74
2024/01/22 02:19:41;;;;;;;5.50;2.80;;;;;;;;;;5074447;28;20214;-74
2024/01/22 02:22:07;;;;;;;5.07;2.50;;;;;;;;;;5051050;28;20217;-75
2024/01/22 02:24:33;;;;;;;5.03;2.60;;;;;;;;;;5076066;28;20356;-73
2024/01/22 02:26:59;;;;;;;4.83;2.80;;;;;;;;;;5054182;28;20195;-73
2024/01/22 02:29:25;;;;;;;5.47;2.83;;;;;;;;;;5077404;28;20217;-71
2024/01/22 02:31:52;;;;;;;5.17;3.03;;;;;;;;;;5077117;28;20704;-73
2024/01/22 02:34:19;;;;;;;6.33;3.20;;;;;;;;;;5072497;28;20210;-73
2024/01/22 02:36:46;;;;;;;5.87;2.77;;;;;;;;;;5076292;28;20213;-71
2024/01/22 02:39:15;;;;;;;4.97;2.90;;;;;;;;;;5071257;28;20660;-73
2024/01/22 02:41:41;;;;;;;3.50;2.10;;;;;;;;;;5056775;28;20265;-73
2024/01/22 02:44:07;;;;;;;4.37;2.73;;;;;;;;;;5057599;28;20212;-73
2024/01/22 02:46:33;;;;;;;5.90;2.20;;;;;;;;;;5075430;28;20214;-71
2024/01/22 02:48:59;;;;;;;4.77;2.70;;;;;;;;;;5053217;28;20564;-73
2024/01/22 02:51:26;;;;;;;3.30;2.03;;;;;;;;;;5076621;28;20176;-73
2024/01/22 02:53:52;;;;;;;4.90;2.73;;;;;;;;;;5075364;28;20258;-73
2024/01/22 02:56:18;;;;;;;5.80;3.00;;;;;;;;;;5078497;28;20260;-71
2024/01/22 02:58:44;;;;;;;3.33;2.07;;;;;;;;;;5075479;28;20235;-73
2024/01/22 03:01:10;;;;;;;8.67;3.23;;;;;;;;;;5076467;28;20233;-74
2024/01/22 03:03:37;;;;;;;4.53;2.77;;;;;;;;;;5076529;28;20260;-73
2024/01/22 03:06:03;;;;;;;4.47;2.83;;;;;;;;;;5075781;28;20186;-73
2024/01/22 03:08:29;;;;;;;4.23;2.80;;;;;;;;;;5078415;28;20231;-73
2024/01/22 03:10:55;;;;;;;5.00;2.43;;;;;;;;;;5075990;28;20230;-74
2024/01/22 03:13:22;;;;;;;4.80;2.33;;;;;;;;;;5076440;28;20202;-74
2024/01/22 03:15:48;;;;;;;4.47;2.40;;;;;;;;;;5052703;28;20604;-72
2024/01/22 03:18:14;;;;;;;4.87;2.60;;;;;;;;;;5073764;28;20322;-76
2024/01/22 03:20:40;;;;;;;3.93;2.60;;;;;;;;;;5051512;28;20175;-73
2024/01/22 03:23:06;;;;;;;3.53;2.23;;;;;;;;;;5074129;28;20800;-73
2024/01/22 03:25:32;;;;;;;7.50;2.87;;;;;;;;;;5078058;28;20210;-73
2024/01/22 03:27:58;;;;;;;4.50;2.63;;;;;;;;;;5051964;28;20229;-75
2024/01/22 03:30:24;;;;;;;3.33;2.40;;;;;;;;;;5096213;28;20661;-75
2024/01/22 03:32:50;;;;;;;7.30;2.77;;;;;;;;;;5073318;28;20221;-75
2024/01/22 03:35:16;;;;;;;3.73;2.30;;;;;;;;;;5096733;28;20222;-75
2024/01/22 03:37:42;;;;;;;4.40;2.67;;;;;;;;;;5094626;28;20697;-73
2024/01/22 03:40:09;;;;;;;4.53;3.10;;;;;;;;;;5078932;28;20206;-72
2024/01/22 03:42:36;;;;;;;2.90;1.80;;;;;;;;;;5077538;28;20270;-73
2024/01/22 03:45:02;;;;;;;4.13;2.23;;;;;;;;;;5074175;28;20178;-74
2024/01/22 03:47:28;;;;;;;2.97;2.57;;;;;;;;;;5075746;28;20863;-73
2024/01/22 03:49:55;;;;;;;3.30;2.50;;;;;;;;;;5051454;28;20215;-74
2024/01/22 03:52:20;;;;;;;5.70;2.10;;;;;;;;;;5074994;28;20683;-74
2024/01/22 03:54:47;;;;;;;3.03;2.37;;;;;;;;;;5056076;28;20207;-70
2024/01/22 03:57:13;;;;;;;4.30;2.30;;;;;;;;;;5059710;28;20196;-75
2024/01/22 03:59:39;;;;;;;3.93;2.57;;;;;;;;;;5074018;28;20583;-72
2024/01/22 04:02:05;;;;;;;4.13;2.33;;;;;;;;;;5057078;28;20225;-73
2024/01/22 04:04:31;;;;;;;5.93;2.17;;;;;;;;;;5069316;28;20221;-72
2024/01/22 04:06:57;;;;;;;3.03;2.00;;;;;;;;;;5050091;28;20735;-73
2024/01/22 04:09:23;;;;;;;3.00;1.87;;;;;;;;;;5073982;28;20201;-73
2024/01/22 04:11:49;;;;;;;3.50;2.20;;;;;;;;;;5065665;28;20172;-75
2024/01/22 04:14:15;;;;;;;4.30;2.13;;;;;;;;;;5061665;28;20214;-75
2024/01/22 04:16:41;;;;;;;4.00;2.60;;;;;;;;;;5077516;28;20596;-72
2024/01/22 04:19:07;;;;;;;5.23;2.33;;;;;;;;;;5071639;28;20306;-73
2024/01/22 04:21:33;;;;;;;4.67;2.47;;;;;;;;;;5072951;28;20293;-73
2024/01/22 04:23:59;;;;;;;3.13;2.10;;;;;;;;;;5073658;28;20198;-72
2024/01/22 04:26:25;;;;;;;2.97;2.27;;;;;;;;;;5058590;28;20342;-73
2024/01/22 04:28:51;;;;;;;4.27;1.97;;;;;;;;;;5072485;28;20590;-73
2024/01/22 04:31:17;;;;;;;4.13;2.50;;;;;;;;;;5076193;28;20223;-73
2024/01/22 04:33:43;;;;;;;3.37;2.07;;;;;;;;;;5070548;28;20214;-71
2024/01/22 04:36:09;;;;;;;6.93;2.37;;;;;;;;;;5078512;28;20174;-73
2024/01/22 04:38:35;;;;;;;3.23;1.93;;;;;;;;;;5078285;28;20167;-73
2024/01/22 04:41:01;;;;;;;6.47;2.20;;;;;;;;;;5070900;28;20210;-73
2024/01/22 04:43:28;;;;;;;6.23;2.30;;;;;;;;;;5079159;28;20205;-73
2024/01/22 04:45:53;;;;;;;3.60;2.33;;;;;;;;;;5052566;28;20336;-74
2024/01/22 04:48:19;;;;;;;6.20;2.17;;;;;;;;;;5060751;28;20235;-74
2024/01/22 04:50:45;;;;;;;5.23;1.90;;;;;;;;;;5074647;28;20751;-73
2024/01/22 04:53:11;;;;;;;3.00;1.80;;;;;;;;;;5048810;28;20217;-73
2024/01/22 04:55:37;;;;;;;2.30;1.77;;;;;;;;;;5057482;28;20231;-73
2024/01/22 04:58:03;;;;;;;4.70;1.93;;;;;;;;;;5072576;28;20207;-74
2024/01/22 05:00:29;;;;;;;3.07;2.07;;;;;;;;;;5074309;28;21062;-73
2024/01/22 05:02:55;;;;;;;6.33;2.07;;;;;;;;;;5075781;28;20222;-74
2024/01/22 05:05:21;;;;;;;3.33;1.80;;;;;;;;;;5070282;28;20217;-74
2024/01/22 05:07:47;;;;;;;3.27;1.80;;;;;;;;;;5073840;28;20593;-73
2024/01/22 05:10:14;;;;;;;4.00;1.90;;;;;;;;;;5078628;28;20202;-74
2024/01/22 05:12:40;;;;;;;5.17;1.93;;;;;;;;;;5074178;28;20572;-73
2024/01/22 05:15:07;;;;;;;3.80;1.90;;;;;;;;;;5076346;28;20592;-74
2024/01/22 05:17:33;;;;;;;2.83;1.73;;;;;;;;;;5077607;28;20210;-74
2024/01/22 05:19:59;;;;;;;3.27;2.23;;;;;;;;;;5069707;28;20211;-72
2024/01/22 05:22:25;;;;;;;2.17;1.50;;;;;;;;;;5077812;28;20281;-72
2024/01/22 05:24:53;;;;;;;3.33;1.87;;;;;;;;;;5072541;28;20217;-73
2024/01/22 05:27:19;;;;;;;2.17;1.40;;;;;;;;;;5071321;28;20202;-74
2024/01/22 05:29:45;;;;;;;2.73;1.33;;;;;;;;;;5068121;28;20167;-74
2024/01/22 05:32:11;;;;;;;1.87;1.00;;;;;;;;;;5058054;28;20195;-74
2024/01/22 05:34:37;;;;;;;1.20;1.10;;;;;;;;;;5071686;28;20244;-74
2024/01/22 05:37:03;;;;;;;2.03;1.43;;;;;;;;;;5075868;28;20700;-74
2024/01/22 05:39:29;;;;;;;2.83;1.70;;;;;;;;;;5078416;28;20719;-74
2024/01/22 05:41:55;;;;;;;3.40;1.30;;;;;;;;;;5076736;28;20215;-73
2024/01/22 05:44:21;;;;;;;1.70;1.27;;;;;;;;;;5072710;28;21764;-73
2024/01/22 05:46:47;;;;;;;2.13;1.23;;;;;;;;;;5061353;28;20235;-72
2024/01/22 05:49:13;;;;;;;3.17;1.17;;;;;;;;;;5071871;28;20871;-73
2024/01/22 05:51:39;;;;;;;5.73;1.13;;;;;;;;;;5079175;28;20213;-73
2024/01/22 05:54:05;;;;;;;1.93;1.30;;;;;;;;;;5076569;28;20750;-73
2024/01/22 05:56:32;;;;;;;2.60;1.00;;;;;;;;;;5076179;28;20628;-73
2024/01/22 05:58:58;;;;;;;2.63;1.50;;;;;;;;;;5075991;28;20860;-74
2024/01/22 06:01:25;;;;;;;1.93;1.07;;;;;;;;;;5075368;28;20218;-75
2024/01/22 06:03:52;;;;;;;2.03;1.27;;;;;;;;;;5047734;28;20730;-73
2024/01/22 06:06:18;;;;;;;1.03;0.63;;;;;;;;;;5049067;28;20297;-74
2024/01/22 06:08:44;;;;;;;2.27;1.00;;;;;;;;;;5074031;28;20217;-74
2024/01/22 06:11:11;;;;;;;1.33;0.97;;;;;;;;;;5075351;28;20231;-74
2024/01/22 06:13:39;;;;;;;1.50;0.97;;;;;;;;;;5076558;28;20221;-74
2024/01/22 06:16:06;;;;;;;1.80;1.10;;;;;;;;;;5052795;28;20222;-73
2024/01/22 06:18:32;;;;;;;2.40;0.90;;;;;;;;;;5076031;28;20230;-73
2024/01/22 06:20:58;;;;;;;2.00;1.03;;;;;;;;;;5066979;28;20211;-74
2024/01/22 06:23:24;;;;;;;2.43;0.77;;;;;;;;;;5066242;28;20681;-74
2024/01/22 06:25:50;;;;;;;1.67;1.00;;;;;;;;;;5065955;28;20245;-74
2024/01/22 06:28:16;;;;;;;5.17;2.00;;;;;;;;;;5069330;28;20214;-73
2024/01/22 06:30:43;;;;;;;5.30;1.30;;;;;;;;;;5050198;28;20219;-74
2024/01/22 06:33:09;;;;;;;2.60;1.10;;;;;;;;;;5055283;28;20257;-73
2024/01/22 06:35:36;;;;;;;1.83;1.00;;;;;;;;;;5076415;28;20179;-73
2024/01/22 06:38:02;;;;;;;2.83;0.90;;;;;;;;;;5071839;28;20587;-74
2024/01/22 06:40:31;;;;;;;4.60;1.00;;;;;;;;;;5077576;28;20205;-75
2024/01/22 06:42:57;;;;;;;1.73;1.13;;;;;;;;;;5071393;28;20217;-74
2024/01/22 06:45:23;;;;;;;2.53;1.40;;;;;;;;;;5075477;28;20254;-74
2024/01/22 06:47:49;;;;;;;2.03;1.43;;;;;;;;;;5076784;28;20206;-75
2024/01/22 06:50:15;;;;;;;1.90;1.00;;;;;;;;;;5050181;28;20211;-76
2024/01/22 06:52:41;;;;;;;3.20;1.53;;;;;;;;;;5075132;28;20229;-72
2024/01/22 06:55:07;;;;;;;2.57;0.83;;;;;;;;;;5067600;28;20230;-71
2024/01/22 06:57:33;;;;;;;3.77;1.17;;;;;;;;;;5056230;28;20293;-73
2024/01/22 07:00:06;;;;;;;1.77;0.97;;;;;;;;;;5075447;28;20258;-76
2024/01/22 07:02:32;;;;;;;1.00;0.90;;;;;;;;;;5073678;28;20260;-76
2024/01/22 07:04:58;;;;;;;2.40;1.10;;;;;;;;;;5076733;28;20213;-72
2024/01/22 07:07:25;;;;;;;1.87;1.20;;;;;;;;;;5074158;28;20214;-74
2024/01/22 07:09:52;;;;;;;2.37;1.40;;;;;;;;;;5069410;28;20218;-74
2024/01/22 07:12:19;;;;;;;1.60;1.07;;;;;;;;;;5076708;28;20198;-73
2024/01/22 07:14:45;;;;;;;3.60;0.80;;;;;;;;;;5072195;28;20258;-73
2024/01/22 07:17:11;;;;;;;1.83;0.90;;;;;;;;;;5078978;28;20246;-71
2024/01/22 07:19:37;;;;;;;2.50;1.27;;;;;;;;;;5081697;28;20202;-73
2024/01/22 07:22:04;;;;;;;3.53;1.20;;;;;;;;;;5056707;28;20213;-74
2024/01/22 07:24:30;;;;;;;2.00;1.10;;;;;;;;;;5074787;28;20253;-73
2024/01/22 07:26:56;;;;;;;1.23;0.70;;;;;;;;;;5063977;28;20278;-74
2024/01/22 07:29:22;;;;;;;0.80;0.80;;;;;;;;;;5055488;28;20289;-74
2024/01/22 07:31:48;;;;;;;2.93;0.90;;;;;;;;;;5074645;28;20213;-74
2024/01/22 07:34:14;;;;;;;0.83;0.73;;;;;;;;;;5060064;28;20211;-73
2024/01/22 07:36:40;;;;;;;0.57;0.50;;;;;;;;;;5084826;28;20259;-74
2024/01/22 07:39:07;;;;;;;1.50;0.80;;;;;;;;;;5082961;28;20178;-74
2024/01/22 07:41:33;;;;;;;1.60;1.20;;;;;;;;;;5082126;28;20191;-75
2024/01/22 07:43:59;;;;;;;1.50;0.83;;;;;;;;;;5079235;28;20215;-73
2024/01/22 07:46:26;;;;;;;1.67;0.90;;;;;;;;;;5081100;28;20388;-75
2024/01/22 07:48:52;;;;;;;2.00;1.00;;;;;;;;;;5060709;28;20222;-74
2024/01/22 07:51:19;;;;;;;1.70;1.20;;;;;;;;;;5080037;28;20193;-74
2024/01/22 07:53:45;;;;;;;1.93;1.20;;;;;;;;;;5077829;28;20199;-73
2024/01/22 07:56:11;;;;;;;2.47;0.87;;;;;;;;;;5077299;28;20217;-74
2024/01/22 07:58:40;;;;;;;0.97;0.70;;;;;;;;;;5062697;28;20206;-74
2024/01/22 08:01:06;;;;;;;1.00;0.83;;;;;;;;;;5059290;28;20241;-74
2024/01/22 08:03:32;;;;;;;2.50;1.10;;;;;;;;;;5080001;28;20207;-73
2024/01/22 08:05:58;;;;;;;3.13;1.20;;;;;;;;;;5079928;28;20236;-73
2024/01/22 08:08:30;;;;;;;1.00;0.80;;;;;;;;;;5079162;28;20682;-74
2024/01/22 08:10:57;;;;;;;1.80;0.77;;;;;;;;;;5079002;28;20221;-72
2024/01/22 08:13:23;;;;;;;0.80;0.80;;;;;;;;;;5059281;28;20577;-74
2024/01/22 08:15:49;;;;;;;1.47;1.17;;;;;;;;;;5076298;28;20202;-74
2024/01/22 08:18:16;;;;;;;0.93;0.80;;;;;;;;;;5078127;28;20175;-74
2024/01/22 08:20:42;;;;;;;1.00;0.80;;;;;;;;;;5072514;28;20179;-74
2024/01/22 08:23:08;;;;;;;1.47;0.80;;;;;;;;;;5075918;28;20656;-74
2024/01/22 08:25:34;;;;;;;1.47;0.80;;;;;;;;;;5080949;28;20727;-74
2024/01/22 08:28:00;;;;;;;1.77;0.87;;;;;;;;;;5074734;28;20700;-74
2024/01/22 08:30:27;;;;;;;2.10;0.93;;;;;;;;;;5077807;28;21096;-73
2024/01/22 08:32:53;;;;;;;2.13;1.27;;;;;;;;;;5077324;28;20202;-74
2024/01/22 08:35:20;;;;;;;1.20;0.93;;;;;;;;;;5078759;28;20203;-74
2024/01/22 08:37:52;;;;;;;1.07;0.80;;;;;;;;;;5080532;28;20209;-74
2024/01/22 08:40:22;;;;;;;1.73;0.90;;;;;;;;;;5059295;28;20209;-73
2024/01/22 08:42:52;;;;;;;1.90;1.17;;;;;;;;;;5081521;28;20297;-74
2024/01/22 08:45:19;;;;;;;3.30;1.53;;;;;;;;;;5075278;28;20679;-74
2024/01/22 08:47:46;;;;;;;1.50;1.27;;;;;;;;;;5081155;28;20207;-74
2024/01/22 08:50:17;;;;;;;3.33;0.70;;;;;;;;;;5077114;28;20202;-73
2024/01/22 08:52:44;;;;;;;3.03;1.10;;;;;;;;;;5075797;28;20199;-74
2024/01/22 08:55:10;;;;;;;1.07;0.87;;;;;;;;;;5079679;28;20225;-75
2024/01/22 08:57:36;;;;;;;0.87;0.77;;;;;;;;;;5065526;28;20202;-74
2024/01/22 09:00:10;;;;;;;1.60;1.03;;;;;;;;;;5078003;28;20181;-76
2024/01/22 09:02:37;;;;;;;3.57;1.20;;;;;;;;;;5075663;28;20253;-74
2024/01/22 09:05:03;;;;;;;2.50;1.47;;;;;;;;;;5060847;28;20704;-75
2024/01/22 09:07:29;;;;;;;3.67;0.93;;;;;;;;;;5071620;28;20213;-75
2024/01/22 09:09:56;;;;;;;2.50;1.10;;;;;;;;;;5082468;28;20206;-74
2024/01/22 09:12:22;;;;;;;1.60;1.10;;;;;;;;;;5059749;28;20198;-75
2024/01/22 09:14:48;;;;;;;5.20;1.20;;;;;;;;;;5058474;28;20295;-74
2024/01/22 09:17:15;;;;;;;3.87;0.70;;;;;;;;;;5059984;28;20265;-74
2024/01/22 09:19:41;;;;;;;5.33;1.10;;;;;;;;;;5059228;28;20217;-75
2024/01/22 09:22:07;;;;;;;3.27;1.10;;;;;;;;;;5074306;28;20214;-75
2024/01/22 09:24:33;;;;;;;2.83;1.00;;;;;;;;;;5081680;28;20215;-76
2024/01/22 09:26:59;;;;;;;1.40;0.80;;;;;;;;;;5075258;28;20186;-74
2024/01/22 09:29:25;;;;;;;1.30;0.87;;;;;;;;;;5056770;28;20208;-76
2024/01/22 09:31:51;;;;;;;1.67;1.00;;;;;;;;;;5076810;28;20685;-75
2024/01/22 09:34:17;;;;;;;1.63;0.90;;;;;;;;;;5073542;28;20218;-75
2024/01/22 09:36:43;;;;;;;5.33;1.47;;;;;;;;;;5082010;28;20210;-76
2024/01/22 09:39:09;;;;;;;2.73;1.00;;;;;;;;;;5072230;28;20175;-75
2024/01/22 09:41:36;;;;;;;1.17;0.90;;;;;;;;;;5072049;28;20231;-75
2024/01/22 09:44:02;;;;;;;2.77;1.20;;;;;;;;;;5077647;28;20701;-75
2024/01/22 09:46:28;;;;;;;1.00;0.80;;;;;;;;;;5076697;28;20282;-75
2024/01/22 09:48:55;;;;;;;1.00;0.70;;;;;;;;;;5077025;28;20237;-74
2024/01/22 09:51:21;;;;;;;1.60;1.00;;;;;;;;;;5075610;28;20776;-76
2024/01/22 09:53:47;;;;;;;1.17;0.80;;;;;;;;;;5055743;28;20749;-74
2024/01/22 09:56:21;;;;;;;2.43;1.10;;;;;;;;;;5077223;28;20313;-76
2024/01/22 09:58:51;;;;;;;2.07;1.10;;;;;;;;;;5048007;28;20203;-73
2024/01/22 10:01:17;;;;;;;3.77;1.47;;;;;;;;;;5075303;28;20290;-74
2024/01/22 10:03:44;;;;;;;3.40;1.23;;;;;;;;;;5079085;28;20218;-73
2024/01/22 10:06:11;;;;;;;1.43;0.80;;;;;;;;;;5068934;28;20185;-74
2024/01/22 10:08:37;;;;;;;2.33;0.83;;;;;;;;;;5076862;28;20661;-73
2024/01/22 10:11:04;;;;;;;2.03;0.87;;;;;;;;;;5073630;28;20229;-75
2024/01/22 10:13:31;;;;;;;2.73;1.17;;;;;;;;;;5075811;28;20327;-75
2024/01/22 10:16:09;;;;;;;3.93;1.00;;;;;;;;;;5079134;28;20609;-75
2024/01/22 10:18:36;;;;;;;1.80;0.90;;;;;;;;;;5053028;28;20302;-74
2024/01/22 10:21:02;;;;;;;1.80;0.60;;;;;;;;;;5077548;28;20177;-74
2024/01/22 10:23:27;;;;;;;2.33;1.00;;;;;;;;;;5076805;28;20212;-74
2024/01/22 10:26:05;;;;;;;0.63;0.57;;;;;;;;;;5079931;28;20685;-74
2024/01/22 10:28:31;;;;;;;1.33;0.63;;;;;;;;;;5072931;28;20218;-74
2024/01/22 10:31:04;;;;;;;2.90;0.70;;;;;;;;;;5076258;28;20333;-74
2024/01/22 10:33:30;;;;;;;2.13;0.80;;;;;;;;;;5075500;28;20274;-75
2024/01/22 10:35:57;;;;;;;0.87;0.60;;;;;;;;;;5073895;28;20182;-74
2024/01/22 10:38:24;;;;;;;1.90;0.70;;;;;;;;;;5056993;28;20237;-75
2024/01/22 10:40:50;;;;;;;1.97;0.80;;;;;;;;;;5059491;28;20309;-74
2024/01/22 10:43:19;;;;;;;1.30;0.70;;;;;;;;;;5074176;28;20671;-74
2024/01/22 10:45:49;;;;;;;4.97;0.70;;;;;;;;;;5073991;28;20210;-74
2024/01/22 10:48:20;;;;;;;3.30;0.80;;;;;;;;;;5083244;28;20768;-73
2024/01/22 10:50:46;;;;;;;1.77;0.90;;;;;;;;;;5082052;28;20163;-74
2024/01/22 10:53:12;;;;;;;1.77;0.90;;;;;;;;;;5073044;28;20202;-75
2024/01/22 10:55:41;;;;;;;1.13;0.87;;;;;;;;;;5077605;28;20610;-75
2024/01/22 10:58:12;;;;;;;1.90;0.70;;;;;;;;;;5082577;28;20198;-74
2024/01/22 11:00:42;;;;;;;2.33;1.07;;;;;;;;;;5077797;28;20263;-74
2024/01/22 11:03:09;;;;;;;2.60;0.97;;;;;;;;;;5078454;28;20203;-74
2024/01/22 11:05:39;;;;;;;2.73;0.87;;;;;;;;;;5082713;28;20222;-74
2024/01/22 11:08:07;;;;;;;3.37;0.87;;;;;;;;;;5079754;28;20238;-74
2024/01/22 11:10:33;;;;;;;0.97;0.87;;;;;;;;;;5081152;28;20210;-74
2024/01/22 11:12:59;;;;;;;1.63;0.93;;;;;;;;;;5085282;28;20714;-74
2024/01/22 11:15:25;;;;;;;1.07;0.50;;;;;;;;;;5090251;28;20182;-76
2024/01/22 11:17:51;;;;;;;1.03;0.60;;;;;;;;;;5088537;28;20209;-75
2024/01/22 11:20:18;;;;;;;1.70;0.87;;;;;;;;;;5085794;28;20637;-75
2024/01/22 11:22:59;;;;;;;1.17;0.70;;;;;;;;;;5091039;28;20218;-75
2024/01/22 11:25:25;;;;;;;1.33;0.87;;;;;;;;;;5056377;28;20306;-75
2024/01/22 11:28:00;;;;;;;1.37;0.90;;;;;;;;;;5079547;28;20237;-75
2024/01/22 11:30:26;;;;;;;1.77;0.87;;;;;;;;;;5056685;28;20182;-74
2024/01/22 11:32:52;;;;;;;1.13;0.77;;;;;;;;;;5085712;28;20677;-75
2024/01/22 11:35:34;;;;;;;0.87;0.60;;;;;;;;;;5082703;28;20297;-74
2024/01/22 11:38:04;;;;;;;1.27;0.53;;;;;;;;;;5060568;28;20199;-75
2024/01/22 11:40:49;;;;;;;2.23;0.67;;;;;;;;;;5080421;28;20314;-74
2024/01/22 11:43:17;;;;;;;2.60;0.70;;;;;;;;;;5083571;28;20235;-74
2024/01/22 11:45:43;;;;;;;1.50;0.70;;;;;;;;;;5070902;28;20690;-74
2024/01/22 11:48:19;;;;;;;1.20;0.80;;;;;;;;;;5083320;28;20241;-74
2024/01/22 11:50:59;;;;;;;1.17;0.70;;;;;;;;;;5057537;28;20179;-74
2024/01/22 11:53:28;;;;;;;1.50;0.90;;;;;;;;;;5083317;28;20294;-74
2024/01/22 11:56:02;;;;;;;2.70;0.70;;;;;;;;;;5082250;28;20329;-74
2024/01/22 11:58:32;;;;;;;0.77;0.50;;;;;;;;;;5079119;28;20672;-73
2024/01/22 12:00:59;;;;;;;0.83;0.47;;;;;;;;;;5081515;28;20217;-73
2024/01/22 12:03:25;;;;;;;1.07;0.53;;;;;;;;;;5060550;28;20202;-75
2024/01/22 12:06:01;;;;;;;0.67;0.50;;;;;;;;;;5083585;28;20646;-74
2024/01/22 12:08:27;;;;;;;3.23;0.80;;;;;;;;;;5069866;28;20215;-76
2024/01/22 12:10:56;;;;;;;1.53;0.50;;;;;;;;;;5063161;28;20216;-75
2024/01/22 12:13:23;;;;;;;0.90;0.70;;;;;;;;;;5076567;28;20206;-76
2024/01/22 12:15:56;;;;;;;0.50;0.50;;;;;;;;;;5085915;28;20195;-74
2024/01/22 12:18:23;;;;;;;0.97;0.83;;;;;;;;;;5078962;28;20166;-75
2024/01/22 12:20:50;;;;;;;5.00;1.97;;;;;;;;;;5080057;28;20173;-75
2024/01/22 12:23:28;;;;;;;5.47;2.53;;;;;;;;;;5075023;28;20195;-75
2024/01/22 12:25:55;;;;;;;2.13;1.23;;;;;;;;;;5078134;28;20202;-74
2024/01/22 12:28:21;;;;;;;1.10;0.80;;;;;;;;;;5077354;28;20210;-75
2024/01/22 12:30:58;;;;;;;1.97;0.90;;;;;;;;;;5077675;28;20225;-74
2024/01/22 12:33:24;;;;;;;3.17;1.77;;;;;;;;;;5077940;28;20202;-74
2024/01/22 12:35:51;;;;;;;1.57;0.90;;;;;;;;;;5077741;28;20262;-74
2024/01/22 12:38:20;;;;;;;3.13;1.70;;;;;;;;;;5074861;28;20273;-74
2024/01/22 12:40:46;;;;;;;0.93;0.60;;;;;;;;;;5059012;28;20195;-74
2024/01/22 12:43:12;;;;;;;3.67;1.33;;;;;;;;;;5080738;28;20574;-74
2024/01/22 12:45:38;;;;;;;1.40;0.70;;;;;;;;;;5077594;28;20203;-74
2024/01/22 12:48:05;;;;;;;1.77;0.70;;;;;;;;;;5079084;28;20195;-74
2024/01/22 12:50:32;;;;;;;4.60;1.10;;;;;;;;;;5078314;28;20202;-72
2024/01/22 12:52:58;;;;;;;0.77;0.57;;;;;;;;;;5053744;28;20226;-73
2024/01/22 12:55:24;;;;;;;1.87;1.50;;;;;;;;;;5063117;28;20688;-74
2024/01/22 12:57:50;;;;;;;0.90;0.60;;;;;;;;;;5054661;28;20214;-74
2024/01/22 13:00:18;;;;;;;1.00;0.57;;;;;;;;;;5078865;28;20177;-74
2024/01/22 13:02:44;;;;;;;2.13;0.80;;;;;;;;;;5077267;28;20275;-75
2024/01/22 13:05:10;;;;;;;1.17;0.80;;;;;;;;;;5079579;28;20194;-75
2024/01/22 13:07:36;;;;;;;1.60;0.50;;;;;;;;;;5077043;28;20210;-74
2024/01/22 13:10:03;;;;;;;0.73;0.50;;;;;;;;;;5075137;28;20286;-74
2024/01/22 13:12:29;;;;;;;4.73;3.03;;;;;;;;;;5078380;28;20548;-74
2024/01/22 13:14:55;;;;;;;0.70;0.50;;;;;;;;;;5077367;28;20689;-74
2024/01/22 13:17:22;;;;;;;1.37;0.77;;;;;;;;;;5074706;28;20308;-74
2024/01/22 13:19:48;;;;;;;1.43;0.70;;;;;;;;;;5077499;28;20256;-75
2024/01/22 13:22:14;;;;;;;0.50;0.40;;;;;;;;;;5068367;28;20214;-75
2024/01/22 13:24:42;;;;;;;2.00;0.50;;;;;;;;;;5074585;28;20692;-74
2024/01/22 13:27:08;;;;;;;1.90;0.97;;;;;;;;;;5055351;28;20179;-74
2024/01/22 13:29:35;;;;;;;1.27;0.80;;;;;;;;;;5060649;28;20206;-75
2024/01/22 13:32:01;;;;;;;1.10;0.57;;;;;;;;;;5079185;28;20206;-74
2024/01/22 13:34:27;;;;;;;0.97;0.70;;;;;;;;;;5077186;28;20206;-75
2024/01/22 13:36:54;;;;;;;0.87;0.50;;;;;;;;;;5068640;28;20289;-75
2024/01/22 13:39:20;;;;;;;0.60;0.60;;;;;;;;;;5076061;28;20380;-75
2024/01/22 13:41:48;;;;;;;1.43;0.60;;;;;;;;;;5075763;28;20174;-74
2024/01/22 13:44:15;;;;;;;1.60;0.70;;;;;;;;;;5077646;28;20197;-75
2024/01/22 13:46:41;;;;;;;1.17;0.70;;;;;;;;;;5058165;28;20202;-75
2024/01/22 13:49:09;;;;;;;3.07;0.60;;;;;;;;;;5054734;28;20398;-75
2024/01/22 13:51:35;;;;;;;1.00;0.70;;;;;;;;;;5078357;28;20348;-75
2024/01/22 13:54:01;;;;;;;1.30;0.40;;;;;;;;;;5081331;28;20222;-75
2024/01/22 13:56:27;;;;;;;0.93;0.63;;;;;;;;;;5084553;28;20203;-75
2024/01/22 13:58:53;;;;;;;2.23;0.83;;;;;;;;;;5090038;28;20207;-75
2024/01/22 14:01:19;;;;;;;1.50;0.83;;;;;;;;;;5089419;28;20207;-75
2024/01/22 14:03:45;;;;;;;1.70;0.53;;;;;;;;;;5078466;28;20306;-75
2024/01/22 14:06:11;;;;;;;1.60;0.63;;;;;;;;;;5078750;28;20191;-75
2024/01/22 14:08:37;;;;;;;3.40;0.90;;;;;;;;;;5079674;28;20198;-75
2024/01/22 14:11:04;;;;;;;0.97;0.60;;;;;;;;;;5095148;28;20195;-73
2024/01/22 14:13:30;;;;;;;1.50;0.80;;;;;;;;;;5088196;28;20214;-74
2024/01/22 14:15:56;;;;;;;0.67;0.57;;;;;;;;;;5045697;28;20718;-73
2024/01/22 14:18:24;;;;;;;1.80;0.80;;;;;;;;;;5083345;28;20176;-74
2024/01/22 14:20:50;;;;;;;0.87;0.50;;;;;;;;;;5071765;28;20170;-74
2024/01/22 14:23:16;;;;;;;1.33;0.70;;;;;;;;;;5051828;28;20207;-75
2024/01/22 14:25:42;;;;;;;1.27;0.90;;;;;;;;;;5054108;28;20709;-75
2024/01/22 14:28:08;;;;;;;1.80;0.90;;;;;;;;;;5054137;28;20273;-75
2024/01/22 14:30:34;;;;;;;0.70;0.70;;;;;;;;;;5056151;28;20214;-76
2024/01/22 14:33:00;;;;;;;1.90;0.80;;;;;;;;;;5075275;28;21495;-77
2024/01/22 14:35:27;;;;;;;1.17;0.53;;;;;;;;;;5077620;28;20210;-75
2024/01/22 14:37:53;;;;;;;1.23;0.73;;;;;;;;;;5066169;28;20199;-79
2024/01/22 14:40:19;;;;;;;5.07;1.00;;;;;;;;;;5077784;28;20207;-77